Time;durP1;ratioP1;P1;durP2;ratioP2;P2;SDS_P1;SDS_P2;PMS_P1;PMS_P2;Temp;Humidity;BMP_temperature;BMP_pressure;BME280_temperature;BME280_humidity;BME280_pressure;Samples;Min_cycle;Max_cycle;Signal;HPM_P1;HPM_P2
2022/01/30 00:00:53;;;;;;;11.30;2.87;;;7.40;99.90;;;;;;5074891;28;20292;-55
2022/01/30 00:03:21;;;;;;;13.77;3.17;;;7.40;99.90;;;;;;5078945;28;20223;-55
2022/01/30 00:05:50;;;;;;;9.97;3.10;;;7.30;99.90;;;;;;5074269;28;20212;-55
2022/01/30 00:08:18;;;;;;;11.87;3.23;;;7.30;99.90;;;;;;5075900;28;20285;-55
2022/01/30 00:10:52;;;;;;;11.43;3.30;;;7.30;99.90;;;;;;5072478;28;20231;-55
2022/01/30 00:13:22;;;;;;;12.27;3.27;;;7.30;99.90;;;;;;5071603;28;20255;-54
2022/01/30 00:15:53;;;;;;;10.10;3.30;;;7.30;99.90;;;;;;5092936;28;20250;-54
2022/01/30 00:18:39;;;;;;;12.70;3.23;;;7.20;99.90;;;;;;5091703;28;20228;-55
2022/01/30 00:21:13;;;;;;;12.63;3.30;;;7.30;99.90;;;;;;5092824;28;20736;-56
2022/01/30 00:23:47;;;;;;;11.10;3.30;;;7.30;99.90;;;;;;5092456;28;20227;-54
2022/01/30 00:26:17;;;;;;;11.50;2.77;;;7.20;99.90;;;;;;5092617;28;20207;-53
2022/01/30 00:28:45;;;;;;;9.70;3.10;;;7.20;99.90;;;;;;5092854;28;20255;-55
2022/01/30 00:31:17;;;;;;;11.03;3.07;;;7.20;99.90;;;;;;5092233;28;20215;-55
2022/01/30 00:33:45;;;;;;;12.50;3.43;;;7.20;99.90;;;;;;5089398;28;20604;-55
2022/01/30 00:36:14;;;;;;;12.93;3.30;;;7.10;99.90;;;;;;5092078;28;20235;-55
2022/01/30 00:38:42;;;;;;;14.13;3.30;;;7.10;99.90;;;;;;5092672;28;20669;-54
2022/01/30 00:41:11;;;;;;;12.90;3.17;;;7.10;99.90;;;;;;5092638;28;20208;-54
2022/01/30 00:43:41;;;;;;;14.03;3.90;;;7.00;99.90;;;;;;5100961;28;20314;-55
2022/01/30 00:46:09;;;;;;;12.73;4.07;;;7.00;99.90;;;;;;5092399;28;20262;-55
2022/01/30 00:48:38;;;;;;;10.67;3.33;;;7.00;99.90;;;;;;5092397;28;20236;-55
2022/01/30 00:51:06;;;;;;;14.73;3.70;;;7.00;99.90;;;;;;5074094;28;20212;-55
2022/01/30 00:53:36;;;;;;;14.10;3.10;;;7.00;99.90;;;;;;5089579;28;20262;-55
2022/01/30 00:56:04;;;;;;;13.70;3.47;;;7.00;99.90;;;;;;5092230;28;20208;-55
2022/01/30 00:58:32;;;;;;;14.17;3.53;;;7.00;99.90;;;;;;5091850;28;20613;-55
2022/01/30 01:01:00;;;;;;;12.33;3.17;;;6.90;99.90;;;;;;5071944;28;20209;-54
2022/01/30 01:03:29;;;;;;;14.73;3.30;;;7.00;99.90;;;;;;5071739;28;20739;-57
2022/01/30 01:05:58;;;;;;;14.23;3.33;;;6.90;99.90;;;;;;5077606;28;20204;-54
2022/01/30 01:08:32;;;;;;;12.83;3.43;;;6.90;99.90;;;;;;5092724;28;20259;-55
2022/01/30 01:11:16;;;;;;;11.60;3.27;;;6.90;99.90;;;;;;5093277;28;20211;-55
2022/01/30 01:25:01;;;;;;;17.30;3.90;;;6.80;99.90;;;;;;5068268;28;20249;-54
2022/01/30 01:27:29;;;;;;;12.57;3.17;;;6.80;99.90;;;;;;5068359;28;20220;-55
2022/01/30 01:29:57;;;;;;;15.03;4.13;;;6.80;99.90;;;;;;5067800;28;20203;-55
2022/01/30 01:32:26;;;;;;;14.43;4.13;;;6.80;99.90;;;;;;5055314;28;20225;-54
2022/01/30 01:34:54;;;;;;;15.73;4.00;;;6.80;99.90;;;;;;5047670;28;20842;-55
2022/01/30 01:37:22;;;;;;;16.83;4.47;;;6.80;99.90;;;;;;5048288;28;20252;-55
2022/01/30 01:39:50;;;;;;;13.13;3.63;;;6.80;99.90;;;;;;5047967;28;20244;-55
2022/01/30 01:42:19;;;;;;;13.50;4.07;;;6.80;99.90;;;;;;5052604;28;20645;-55
2022/01/30 01:44:50;;;;;;;17.67;4.27;;;6.70;99.90;;;;;;5067854;28;20576;-54
2022/01/30 01:47:21;;;;;;;16.70;4.17;;;6.70;99.90;;;;;;5067688;28;20333;-55
2022/01/30 01:49:51;;;;;;;12.80;4.10;;;6.70;99.90;;;;;;5067568;28;20746;-55
2022/01/30 01:52:23;;;;;;;14.20;4.40;;;6.70;99.90;;;;;;5066772;28;20229;-54
2022/01/30 01:54:54;;;;;;;18.30;4.27;;;6.70;99.90;;;;;;5066720;28;20217;-54
2022/01/30 01:57:24;;;;;;;21.43;4.60;;;6.70;99.90;;;;;;5067780;28;20240;-54
2022/01/30 01:59:52;;;;;;;13.30;3.93;;;6.70;99.90;;;;;;5067011;28;20915;-55
2022/01/30 02:02:21;;;;;;;18.30;4.27;;;6.60;99.90;;;;;;5067310;28;20278;-55
2022/01/30 02:04:51;;;;;;;11.90;4.33;;;6.60;99.90;;;;;;5067152;28;20263;-54
2022/01/30 02:07:50;;;;;;;14.63;4.00;;;6.70;99.90;;;;;;5067067;28;20233;-54
2022/01/30 02:10:25;;;;;;;17.73;4.67;;;6.70;99.90;;;;;;5067313;28;20252;-53
2022/01/30 02:12:55;;;;;;;14.70;4.10;;;6.60;99.90;;;;;;5067124;28;20228;-55
2022/01/30 02:23:53;;;;;;;16.67;3.83;;;6.60;99.90;;;;;;5066995;28;20267;-55
2022/01/30 02:24:04;;;;;;;18.40;4.03;;;6.50;99.90;;;;;;5066251;28;20260;-55
2022/01/30 02:26:41;;;;;;;21.13;4.27;;;6.40;99.90;;;;;;5061661;28;20685;-55
2022/01/30 02:29:10;;;;;;;20.53;4.17;;;6.30;99.90;;;;;;5053685;28;20572;-55
2022/01/30 02:31:40;;;;;;;18.27;4.57;;;6.30;99.90;;;;;;5053940;28;20211;-55
2022/01/30 02:34:09;;;;;;;16.43;4.10;;;6.30;99.90;;;;;;5051022;28;20286;-55
2022/01/30 02:36:47;;;;;;;16.00;4.07;;;6.40;99.90;;;;;;5053083;28;20268;-55
2022/01/30 02:39:17;;;;;;;16.83;4.87;;;6.30;99.90;;;;;;5053293;28;20203;-54
2022/01/30 02:41:46;;;;;;;10.40;3.33;;;6.30;99.90;;;;;;5051813;28;20205;-55
2022/01/30 02:44:19;;;;;;;14.27;4.00;;;6.40;99.90;;;;;;5053219;28;20205;-55
2022/01/30 02:46:50;;;;;;;16.00;4.30;;;6.30;99.90;;;;;;5053023;28;20659;-54
2022/01/30 02:49:42;;;;;;;14.87;4.07;;;6.40;99.90;;;;;;5053644;28;20219;-54
2022/01/30 02:52:11;;;;;;;20.10;4.87;;;6.30;99.90;;;;;;5051716;28;20264;-55
2022/01/30 02:54:41;;;;;;;18.20;3.77;;;6.30;99.90;;;;;;5052901;28;20205;-55
2022/01/30 02:57:09;;;;;;;16.03;3.60;;;6.40;99.90;;;;;;5052742;28;20259;-55
2022/01/30 02:59:37;;;;;;;18.50;4.37;;;6.40;99.90;;;;;;5043610;28;20249;-55
2022/01/30 03:02:05;;;;;;;15.67;3.63;;;6.40;99.90;;;;;;5033078;28;20269;-55
2022/01/30 03:04:34;;;;;;;14.47;3.80;;;6.30;99.90;;;;;;5032786;28;20711;-54
2022/01/30 03:07:02;;;;;;;23.40;4.03;;;6.30;99.90;;;;;;5033308;28;20207;-54
2022/01/30 03:09:30;;;;;;;16.97;4.13;;;6.30;99.90;;;;;;5032857;28;20263;-54
2022/01/30 03:11:59;;;;;;;14.33;3.90;;;6.30;99.90;;;;;;5032542;28;20671;-55
2022/01/30 03:14:27;;;;;;;14.53;4.17;;;6.30;99.90;;;;;;5043926;28;20213;-55
2022/01/30 03:16:56;;;;;;;19.13;3.97;;;6.30;99.90;;;;;;5052515;28;20346;-55
2022/01/30 03:19:24;;;;;;;19.00;4.17;;;6.30;99.90;;;;;;5052412;28;20589;-55
2022/01/30 03:21:52;;;;;;;18.97;4.43;;;6.30;99.90;;;;;;5052938;28;20202;-55
2022/01/30 03:24:21;;;;;;;22.10;5.03;;;6.20;99.90;;;;;;5052203;28;20205;-55
2022/01/30 03:26:49;;;;;;;18.13;3.77;;;6.20;99.90;;;;;;5052740;28;20231;-55
2022/01/30 03:29:18;;;;;;;19.33;3.90;;;6.20;99.90;;;;;;5052330;28;20211;-55
2022/01/30 03:31:47;;;;;;;18.10;4.20;;;6.30;99.90;;;;;;5052631;28;20233;-55
2022/01/30 03:34:15;;;;;;;20.20;4.73;;;6.20;99.90;;;;;;5052047;28;20208;-55
2022/01/30 03:36:43;;;;;;;22.17;4.50;;;6.20;99.90;;;;;;5052690;28;20232;-54
2022/01/30 03:39:11;;;;;;;11.43;3.93;;;6.20;99.90;;;;;;5051329;28;20239;-55
2022/01/30 03:41:39;;;;;;;21.77;4.43;;;6.20;99.90;;;;;;5052098;28;20693;-56
2022/01/30 03:44:07;;;;;;;18.07;4.50;;;6.20;99.90;;;;;;5044017;28;20244;-56
2022/01/30 03:46:37;;;;;;;14.13;4.73;;;6.20;99.90;;;;;;5052001;28;20240;-55
2022/01/30 03:49:22;;;;;;;17.93;3.63;;;6.20;99.90;;;;;;5052495;28;20244;-54
2022/01/30 03:51:50;;;;;;;15.33;4.10;;;6.20;99.90;;;;;;5051999;28;20205;-55
2022/01/30 03:54:18;;;;;;;16.10;4.43;;;6.20;99.90;;;;;;5052162;28;20264;-55
2022/01/30 03:56:46;;;;;;;14.77;4.77;;;6.20;99.90;;;;;;5051896;28;20725;-55
2022/01/30 03:59:14;;;;;;;18.97;4.07;;;6.20;99.90;;;;;;5051443;28;20673;-55
2022/01/30 04:01:44;;;;;;;11.67;3.23;;;6.10;99.90;;;;;;5052326;28;20588;-54
2022/01/30 04:04:13;;;;;;;14.97;3.50;;;6.10;99.90;;;;;;5051893;28;20218;-55
2022/01/30 04:06:41;;;;;;;12.67;3.83;;;6.10;99.90;;;;;;5051898;28;20202;-55
2022/01/30 04:09:10;;;;;;;15.07;3.93;;;6.00;99.90;;;;;;5052081;28;20247;-54
2022/01/30 04:11:38;;;;;;;14.93;4.07;;;6.00;99.90;;;;;;5051355;28;20208;-55
2022/01/30 04:14:07;;;;;;;11.67;3.13;;;6.00;99.90;;;;;;5051904;28;20264;-55
2022/01/30 04:16:35;;;;;;;13.93;3.80;;;6.00;99.90;;;;;;5051000;28;20287;-54
2022/01/30 04:19:05;;;;;;;11.50;3.37;;;6.00;99.90;;;;;;5051467;28;20555;-55
2022/01/30 04:21:34;;;;;;;14.40;3.67;;;6.00;99.90;;;;;;5051303;28;20225;-55
2022/01/30 04:24:03;;;;;;;12.90;3.60;;;6.00;99.90;;;;;;5051583;28;20271;-56
2022/01/30 04:26:31;;;;;;;16.00;3.40;;;6.00;99.90;;;;;;5051808;28;20203;-55
2022/01/30 04:28:59;;;;;;;11.63;3.07;;;6.00;99.90;;;;;;5051491;28;20611;-55
2022/01/30 04:31:28;;;;;;;11.37;3.30;;;5.90;99.90;;;;;;5051656;28;20252;-55
2022/01/30 04:33:56;;;;;;;13.20;3.50;;;5.90;99.90;;;;;;5051040;28;20314;-55
2022/01/30 04:36:32;;;;;;;13.60;3.57;;;5.90;99.90;;;;;;5031583;28;20234;-55
2022/01/30 04:39:08;;;;;;;13.13;3.73;;;5.90;99.90;;;;;;5031494;28;20244;-54
2022/01/30 04:56:04;;;;;;;11.87;3.70;;;5.80;99.90;;;;;;5048799;28;20257;-55
2022/01/30 04:58:26;;;;;;;13.27;3.40;;;5.80;99.90;;;;;;5050609;28;20772;-55
2022/01/30 05:01:11;;;;;;;13.00;3.70;;;5.80;99.90;;;;;;5031303;28;20214;-55
2022/01/30 05:03:53;;;;;;;12.77;3.50;;;5.80;99.90;;;;;;5031180;28;20222;-55
2022/01/30 05:06:31;;;;;;;11.53;3.57;;;5.70;99.90;;;;;;5031420;28;20211;-55
2022/01/30 05:09:02;;;;;;;14.77;3.63;;;5.70;99.90;;;;;;5040750;28;20613;-54
2022/01/30 05:11:30;;;;;;;18.03;4.00;;;5.80;99.90;;;;;;5050709;28;20704;-55
2022/01/30 05:13:59;;;;;;;11.80;3.53;;;5.70;99.90;;;;;;5050798;28;20264;-55
2022/01/30 05:16:27;;;;;;;19.77;4.40;;;5.80;99.90;;;;;;5050406;28;20218;-55
2022/01/30 05:18:57;;;;;;;14.20;4.27;;;5.70;99.90;;;;;;5050908;28;20585;-55
2022/01/30 05:21:25;;;;;;;12.67;3.23;;;5.70;99.90;;;;;;5050863;28;20259;-55
2022/01/30 05:23:54;;;;;;;16.40;3.53;;;5.70;99.90;;;;;;5050509;28;20605;-56
2022/01/30 05:26:26;;;;;;;22.17;4.87;;;5.70;99.90;;;;;;5050842;28;20226;-55
2022/01/30 05:28:55;;;;;;;13.83;3.60;;;5.70;99.90;;;;;;5050640;28;20296;-55
2022/01/30 05:31:23;;;;;;;20.70;3.90;;;5.70;99.90;;;;;;5050974;28;20252;-55
2022/01/30 05:33:52;;;;;;;14.73;3.53;;;5.70;99.90;;;;;;5050802;28;20304;-55
2022/01/30 05:36:22;;;;;;;13.50;3.67;;;5.70;99.90;;;;;;5050585;28;20245;-55
2022/01/30 05:38:51;;;;;;;12.57;3.50;;;5.70;99.90;;;;;;5050392;28;20243;-54
2022/01/30 05:41:19;;;;;;;13.17;3.23;;;5.70;99.90;;;;;;5050699;28;20267;-55
2022/01/30 05:43:53;;;;;;;17.90;4.03;;;5.70;99.90;;;;;;5050017;28;20281;-55
2022/01/30 05:46:30;;;;;;;16.20;3.97;;;5.70;99.90;;;;;;5050575;28;20290;-55
2022/01/30 05:48:59;;;;;;;13.77;3.60;;;5.70;99.90;;;;;;5030800;28;20209;-54
2022/01/30 05:51:27;;;;;;;15.63;3.40;;;5.70;99.90;;;;;;5030316;28;20246;-55
2022/01/30 05:53:55;;;;;;;17.37;4.03;;;5.70;99.90;;;;;;5030624;28;20228;-54
2022/01/30 05:56:23;;;;;;;12.07;3.23;;;5.70;99.90;;;;;;5047584;28;20231;-55
2022/01/30 05:58:53;;;;;;;20.23;3.73;;;5.70;99.90;;;;;;5048965;28;20261;-54
2022/01/30 06:01:21;;;;;;;10.87;3.30;;;5.70;99.90;;;;;;5047716;28;20207;-55
2022/01/30 06:03:49;;;;;;;15.50;3.50;;;5.70;99.90;;;;;;5053285;28;20267;-54
2022/01/30 06:06:17;;;;;;;11.20;3.10;;;5.70;99.90;;;;;;5053742;28;20239;-54
2022/01/30 06:08:57;;;;;;;16.70;3.40;;;5.70;99.90;;;;;;5052552;28;20233;-54
2022/01/30 06:11:25;;;;;;;13.93;3.50;;;5.70;99.90;;;;;;5053576;28;20229;-55
2022/01/30 06:13:55;;;;;;;13.80;3.80;;;5.70;99.90;;;;;;5053085;28;20728;-55
2022/01/30 06:16:23;;;;;;;14.03;3.30;;;5.60;99.90;;;;;;5050875;28;20629;-54
2022/01/30 06:18:51;;;;;;;16.03;3.90;;;5.60;99.90;;;;;;5052818;28;20569;-55
2022/01/30 06:21:19;;;;;;;11.53;3.37;;;5.60;99.90;;;;;;5053022;28;20661;-55
2022/01/30 06:23:47;;;;;;;12.90;3.10;;;5.60;99.90;;;;;;5048648;28;20253;-55
2022/01/30 06:26:15;;;;;;;14.77;3.87;;;5.60;99.90;;;;;;5052756;28;20207;-54
2022/01/30 06:28:43;;;;;;;16.10;3.63;;;5.60;99.90;;;;;;5052885;28;20722;-55
2022/01/30 06:31:13;;;;;;;12.27;3.10;;;5.60;99.90;;;;;;5050796;28;20237;-55
2022/01/30 06:33:41;;;;;;;16.63;3.50;;;5.60;99.90;;;;;;5048204;28;20229;-54
2022/01/30 06:36:11;;;;;;;12.60;3.33;;;5.60;99.90;;;;;;5050284;28;20205;-55
2022/01/30 06:38:39;;;;;;;13.83;3.40;;;5.60;99.90;;;;;;5051727;28;20763;-55
2022/01/30 06:41:07;;;;;;;9.87;2.73;;;5.60;99.90;;;;;;5052261;28;20705;-55
2022/01/30 06:43:35;;;;;;;10.87;3.03;;;5.50;99.90;;;;;;5048880;28;20241;-55
2022/01/30 06:46:04;;;;;;;10.70;2.67;;;5.50;99.90;;;;;;5050155;28;20224;-54
2022/01/30 06:48:34;;;;;;;13.03;2.97;;;5.50;99.90;;;;;;5052454;28;20231;-54
2022/01/30 06:51:02;;;;;;;9.70;2.80;;;5.40;99.90;;;;;;5051567;28;20635;-55
2022/01/30 06:53:30;;;;;;;11.83;3.03;;;5.40;99.90;;;;;;5052121;28;20263;-55
2022/01/30 06:55:58;;;;;;;13.67;4.00;;;5.40;99.90;;;;;;5052517;28;20229;-55
2022/01/30 06:58:26;;;;;;;13.63;3.50;;;5.40;99.90;;;;;;5049978;28;20638;-55
2022/01/30 07:00:54;;;;;;;12.30;3.67;;;5.40;99.90;;;;;;5050816;28;20631;-55
2022/01/30 07:03:22;;;;;;;12.77;5.17;;;5.30;99.90;;;;;;5051787;28;20269;-55
2022/01/30 07:05:52;;;;;;;13.83;3.40;;;5.40;99.90;;;;;;5051855;28;20609;-55
2022/01/30 07:08:20;;;;;;;15.80;3.80;;;5.40;99.90;;;;;;5051815;28;20557;-55
2022/01/30 07:10:48;;;;;;;17.27;4.23;;;5.40;99.90;;;;;;5052660;28;20239;-55
2022/01/30 07:13:16;;;;;;;18.13;4.20;;;5.40;99.90;;;;;;5052258;28;20245;-55
2022/01/30 07:15:44;;;;;;;14.57;3.87;;;5.30;99.90;;;;;;5049116;28;20650;-55
2022/01/30 07:18:12;;;;;;;15.37;4.13;;;5.30;99.90;;;;;;5052339;28;20318;-54
2022/01/30 07:20:40;;;;;;;14.07;4.20;;;5.30;99.90;;;;;;5052849;28;20230;-55
2022/01/30 07:23:10;;;;;;;23.73;4.20;;;5.30;99.90;;;;;;5052489;28;20595;-55
2022/01/30 07:25:38;;;;;;;18.73;4.83;;;5.40;99.90;;;;;;5052451;28;20638;-55
2022/01/30 07:28:06;;;;;;;20.50;5.40;;;5.30;99.90;;;;;;5052584;28;20646;-54
2022/01/30 07:30:34;;;;;;;31.87;5.33;;;5.40;99.90;;;;;;5052638;28;20247;-55
2022/01/30 07:33:03;;;;;;;17.97;5.03;;;5.40;99.90;;;;;;5052293;28;20234;-55
2022/01/30 07:35:32;;;;;;;19.40;4.80;;;5.30;99.90;;;;;;5052210;28;20743;-54
2022/01/30 07:38:00;;;;;;;21.97;5.07;;;5.40;99.90;;;;;;5051943;28;20217;-55
2022/01/30 07:40:32;;;;;;;29.63;5.13;;;5.40;99.90;;;;;;5051667;28;20240;-55
2022/01/30 07:43:00;;;;;;;21.03;5.23;;;5.40;99.90;;;;;;5051944;28;20255;-55
2022/01/30 07:45:28;;;;;;;21.63;4.67;;;5.40;99.90;;;;;;5052007;28;20623;-54
2022/01/30 07:47:56;;;;;;;21.23;4.90;;;5.40;99.90;;;;;;5052277;28;20198;-55
2022/01/30 07:50:24;;;;;;;18.20;5.13;;;5.40;99.90;;;;;;5052337;28;20207;-54
2022/01/30 07:52:52;;;;;;;19.37;5.00;;;5.40;99.90;;;;;;5051706;28;20237;-55
2022/01/30 07:55:21;;;;;;;17.37;4.60;;;5.50;99.90;;;;;;5052001;28;20672;-54
2022/01/30 07:57:50;;;;;;;18.47;4.60;;;5.50;99.90;;;;;;5051698;28;20634;-55
2022/01/30 08:00:19;;;;;;;21.33;4.47;;;5.50;99.90;;;;;;5051578;28;20295;-55
2022/01/30 08:02:47;;;;;;;20.30;4.47;;;5.50;99.90;;;;;;5051602;28;20734;-55
2022/01/30 08:05:15;;;;;;;19.20;4.07;;;5.50;99.90;;;;;;5051882;28;20214;-55
2022/01/30 08:07:44;;;;;;;13.00;4.50;;;5.50;99.90;;;;;;5051779;28;20230;-55
2022/01/30 08:10:12;;;;;;;14.70;4.13;;;5.50;99.90;;;;;;5051936;28;20242;-55
2022/01/30 08:12:40;;;;;;;20.17;4.30;;;5.50;99.90;;;;;;5051532;28;20227;-56
2022/01/30 08:15:10;;;;;;;15.23;3.97;;;5.50;99.90;;;;;;5051483;28;20258;-54
2022/01/30 08:17:39;;;;;;;15.87;4.23;;;5.50;99.90;;;;;;5034291;28;20705;-54
2022/01/30 08:20:08;;;;;;;14.13;4.00;;;5.50;99.90;;;;;;5049084;28;20658;-55
2022/01/30 08:22:47;;;;;;;19.83;4.20;;;5.50;99.90;;;;;;5051308;28;20256;-55
2022/01/30 08:25:16;;;;;;;14.57;4.37;;;5.60;99.90;;;;;;5050475;28;20209;-55
2022/01/30 08:27:44;;;;;;;17.40;3.90;;;5.60;99.90;;;;;;5045790;28;20230;-55
2022/01/30 08:30:14;;;;;;;14.90;4.40;;;5.70;99.90;;;;;;5042164;28;20642;-54
2022/01/30 08:32:44;;;;;;;19.60;7.30;;;5.70;99.90;;;;;;5049289;28;20596;-55
2022/01/30 08:35:14;;;;;;;15.37;4.27;;;5.70;99.90;;;;;;5046680;28;20198;-55
2022/01/30 08:37:43;;;;;;;18.30;4.43;;;5.70;99.90;;;;;;5048174;28;20205;-55
2022/01/30 08:40:13;;;;;;;13.97;4.80;;;5.70;99.90;;;;;;5048998;28;20225;-55
2022/01/30 08:42:43;;;;;;;23.70;4.97;;;5.80;99.90;;;;;;5049924;28;20231;-55
2022/01/30 08:45:14;;;;;;;18.47;4.67;;;5.80;99.90;;;;;;5046310;28;20206;-54
2022/01/30 08:47:43;;;;;;;16.17;5.57;;;5.80;99.90;;;;;;5049670;28;20211;-55
2022/01/30 08:50:13;;;;;;;19.03;4.73;;;5.80;99.90;;;;;;5049211;28;20198;-55
2022/01/30 08:52:43;;;;;;;20.90;5.13;;;5.70;99.90;;;;;;5049233;28;20236;-55
2022/01/30 08:55:12;;;;;;;23.50;5.53;;;5.80;99.90;;;;;;5047510;28;20659;-56
2022/01/30 08:57:41;;;;;;;19.37;5.47;;;5.80;99.90;;;;;;5049243;28;20728;-55
2022/01/30 09:00:11;;;;;;;21.43;5.50;;;5.80;99.90;;;;;;5046349;28;20265;-55
2022/01/30 09:02:41;;;;;;;24.60;5.50;;;5.90;99.90;;;;;;5047386;28;20628;-55
2022/01/30 09:05:11;;;;;;;20.03;5.27;;;5.90;99.90;;;;;;5051803;28;20203;-55
2022/01/30 09:07:40;;;;;;;25.67;6.03;;;5.90;99.90;;;;;;5053692;28;20209;-55
2022/01/30 09:10:10;;;;;;;23.63;5.67;;;5.90;99.90;;;;;;5049007;28;20721;-55
2022/01/30 09:12:40;;;;;;;22.80;6.33;;;6.00;99.90;;;;;;5049200;28;20757;-54
2022/01/30 09:15:13;;;;;;;24.37;5.87;;;6.00;99.90;;;;;;5050124;28;20226;-55
2022/01/30 09:17:43;;;;;;;26.80;5.77;;;5.90;99.90;;;;;;5035268;28;20235;-55
2022/01/30 09:20:14;;;;;;;26.27;5.60;;;6.00;99.90;;;;;;5050820;28;20309;-55
2022/01/30 09:22:43;;;;;;;27.50;5.30;;;6.00;99.90;;;;;;5050299;28;20312;-55
2022/01/30 09:25:12;;;;;;;26.37;5.47;;;6.10;99.90;;;;;;5050223;28;20232;-54
2022/01/30 09:27:40;;;;;;;29.00;7.50;;;6.10;99.90;;;;;;5050900;28;20236;-55
2022/01/30 09:30:09;;;;;;;20.83;6.07;;;6.10;99.90;;;;;;5050360;28;20619;-54
2022/01/30 09:32:39;;;;;;;23.33;7.63;;;6.10;99.90;;;;;;5040023;28;20229;-54
2022/01/30 09:35:10;;;;;;;38.20;10.90;;;6.20;99.90;;;;;;5050216;28;20220;-55
2022/01/30 09:37:38;;;;;;;33.27;6.53;;;6.10;99.90;;;;;;5052519;28;20783;-54
2022/01/30 09:40:07;;;;;;;27.43;7.53;;;6.20;99.90;;;;;;5054619;28;20255;-54
2022/01/30 09:42:36;;;;;;;40.67;10.77;;;6.20;99.90;;;;;;5053405;28;20361;-54
2022/01/30 09:45:06;;;;;;;34.03;7.50;;;6.20;99.90;;;;;;5043444;28;20258;-54
2022/01/30 09:47:34;;;;;;;32.47;8.70;;;6.10;99.90;;;;;;5053289;28;20211;-55
2022/01/30 09:50:05;;;;;;;29.70;7.07;;;6.10;99.90;;;;;;5049863;28;20239;-55
2022/01/30 09:52:36;;;;;;;27.27;9.43;;;6.00;99.90;;;;;;5049986;28;20228;-54
2022/01/30 09:55:05;;;;;;;26.47;9.90;;;6.20;99.90;;;;;;5049958;28;20734;-54
2022/01/30 09:57:33;;;;;;;23.23;7.50;;;6.20;99.90;;;;;;5051230;28;20208;-56
2022/01/30 10:00:03;;;;;;;31.23;8.50;;;6.20;99.90;;;;;;5050390;28;20735;-53
2022/01/30 10:02:31;;;;;;;31.40;8.17;;;6.20;99.90;;;;;;5050676;28;20785;-55
2022/01/30 10:04:59;;;;;;;24.37;6.30;;;6.20;99.90;;;;;;5052037;28;20212;-54
2022/01/30 10:07:41;;;;;;;29.00;8.03;;;6.20;99.90;;;;;;5053003;28;20234;-55
2022/01/30 10:10:10;;;;;;;26.73;8.07;;;6.20;99.90;;;;;;5052262;28;20247;-54
2022/01/30 10:13:00;;;;;;;29.47;8.67;;;6.20;99.90;;;;;;5052205;28;20311;-55
2022/01/30 10:15:29;;;;;;;26.77;7.40;;;6.20;99.90;;;;;;5049787;28;20241;-55
2022/01/30 10:17:58;;;;;;;24.80;6.37;;;6.20;99.90;;;;;;5047753;28;20295;-55
2022/01/30 10:20:38;;;;;;;30.13;8.73;;;6.20;99.90;;;;;;5051964;28;20419;-55
2022/01/30 10:23:09;;;;;;;32.87;8.40;;;6.20;99.90;;;;;;5050654;28;20240;-55
2022/01/30 10:25:40;;;;;;;31.20;7.77;;;6.30;99.90;;;;;;5052208;28;20213;-54
2022/01/30 10:28:10;;;;;;;28.87;7.57;;;6.30;99.90;;;;;;5051455;28;20235;-55
2022/01/30 10:30:44;;;;;;;36.27;9.60;;;6.40;99.90;;;;;;5051559;28;20233;-55
2022/01/30 10:33:13;;;;;;;28.50;8.27;;;6.40;99.90;;;;;;5051038;28;20262;-56
2022/01/30 10:35:53;;;;;;;27.43;6.90;;;6.50;99.90;;;;;;5052560;28;20217;-55
2022/01/30 10:38:26;;;;;;;31.17;6.80;;;6.60;99.90;;;;;;5050870;28;20627;-55
2022/01/30 10:41:00;;;;;;;34.30;8.63;;;6.70;99.90;;;;;;5051718;28;20229;-55
2022/01/30 10:43:51;;;;;;;26.13;7.20;;;6.70;99.90;;;;;;5051678;28;20794;-54
2022/01/30 10:46:20;;;;;;;28.00;6.37;;;6.70;99.90;;;;;;5047696;28;20202;-54
2022/01/30 10:48:57;;;;;;;25.87;7.40;;;6.70;99.90;;;;;;5049878;28;20217;-55
2022/01/30 10:51:27;;;;;;;27.97;6.93;;;6.70;99.90;;;;;;5048120;28;20194;-55
2022/01/30 10:53:57;;;;;;;27.37;6.70;;;6.70;99.90;;;;;;5051059;28;20641;-55
2022/01/30 10:56:27;;;;;;;25.23;6.50;;;6.70;99.90;;;;;;5050234;28;20796;-55
2022/01/30 10:59:07;;;;;;;24.50;6.33;;;6.60;99.90;;;;;;5050134;28;20209;-55
2022/01/30 11:01:35;;;;;;;27.53;6.93;;;6.60;99.90;;;;;;5050330;28;20313;-55
2022/01/30 11:04:04;;;;;;;28.47;7.17;;;6.60;99.90;;;;;;5049934;28;20222;-55
2022/01/30 11:06:38;;;;;;;26.73;5.70;;;6.70;99.90;;;;;;5046383;28;20216;-55
2022/01/30 11:09:12;;;;;;;25.80;7.00;;;6.70;99.90;;;;;;5051173;28;20243;-55
2022/01/30 11:11:45;;;;;;;30.87;7.20;;;6.80;99.90;;;;;;5051624;28;20574;-54
2022/01/30 11:14:23;;;;;;;27.73;8.10;;;6.80;99.90;;;;;;5046683;28;20663;-55
2022/01/30 11:17:02;;;;;;;29.17;6.50;;;6.80;99.90;;;;;;5050905;28;20216;-56
2022/01/30 11:19:33;;;;;;;26.83;6.47;;;6.70;99.90;;;;;;5051287;28;20299;-55
2022/01/30 11:22:06;;;;;;;29.53;7.30;;;6.70;99.90;;;;;;5050958;28;20194;-56
2022/01/30 11:24:45;;;;;;;25.70;6.90;;;6.70;99.90;;;;;;5050928;28;20216;-54
2022/01/30 11:27:14;;;;;;;26.17;6.90;;;6.70;99.90;;;;;;5051054;28;20208;-54
2022/01/30 11:29:43;;;;;;;27.13;6.20;;;6.60;99.90;;;;;;5050718;28;20208;-54
2022/01/30 11:32:12;;;;;;;26.83;6.63;;;6.70;99.90;;;;;;5050596;28;20255;-54
2022/01/30 11:34:42;;;;;;;20.53;5.73;;;6.80;99.90;;;;;;5047234;28;20236;-55
2022/01/30 11:37:12;;;;;;;26.67;7.67;;;6.70;99.90;;;;;;5050635;28;20213;-54
2022/01/30 11:39:45;;;;;;;30.60;6.53;;;6.60;99.90;;;;;;5051139;28;20267;-55
2022/01/30 11:42:18;;;;;;;28.50;6.80;;;6.70;99.90;;;;;;5051235;28;20271;-55
2022/01/30 11:44:47;;;;;;;26.20;7.03;;;6.60;99.90;;;;;;5051895;28;20565;-54
2022/01/30 11:47:19;;;;;;;28.73;8.10;;;6.60;99.90;;;;;;5052144;28;20209;-55
2022/01/30 11:49:52;;;;;;;36.63;11.60;;;6.60;99.90;;;;;;5051507;28;20592;-55
2022/01/30 11:52:41;;;;;;;38.93;12.63;;;6.60;99.90;;;;;;5051872;28;20701;-55
2022/01/30 11:55:56;;;;;;;35.00;7.63;;;6.70;99.90;;;;;;5051553;28;20237;-55
2022/01/30 11:58:49;;;;;;;38.80;7.53;;;6.70;99.90;;;;;;5052013;28;20564;-54
2022/01/30 12:01:38;;;;;;;30.17;6.93;;;6.70;99.90;;;;;;5045788;28;20767;-55
2022/01/30 12:04:13;;;;;;;28.13;8.20;;;6.80;99.90;;;;;;5051560;28;20319;-55
2022/01/30 12:06:47;;;;;;;32.27;7.27;;;6.80;99.90;;;;;;5051503;28;20289;-54
2022/01/30 12:09:30;;;;;;;30.17;8.50;;;6.80;99.90;;;;;;5051864;28;20198;-55
2022/01/30 12:12:08;;;;;;;31.57;6.93;;;6.70;99.90;;;;;;5051615;28;20209;-55
2022/01/30 12:14:55;;;;;;;32.10;7.70;;;6.80;99.90;;;;;;5051207;28;20219;-54
2022/01/30 12:17:49;;;;;;;28.87;8.87;;;6.80;99.90;;;;;;5050974;28;20227;-55
2022/01/30 12:20:19;;;;;;;34.20;11.00;;;6.80;99.90;;;;;;5049834;28;20214;-55
2022/01/30 12:22:48;;;;;;;25.30;8.23;;;6.80;99.90;;;;;;5050839;28;20678;-55
2022/01/30 12:25:36;;;;;;;34.80;11.17;;;6.90;99.90;;;;;;5051123;28;20560;-55
2022/01/30 12:28:14;;;;;;;33.90;9.40;;;6.90;99.90;;;;;;5056177;28;20236;-55
2022/01/30 12:30:51;;;;;;;33.67;9.27;;;6.90;99.90;;;;;;5059470;28;20228;-55
2022/01/30 12:33:45;;;;;;;29.73;7.60;;;6.80;99.90;;;;;;5050734;28;20228;-55
2022/01/30 12:36:19;;;;;;;28.50;6.80;;;6.80;99.90;;;;;;5051047;28;20202;-54
2022/01/30 12:39:01;;;;;;;27.97;8.10;;;6.80;99.90;;;;;;5050820;28;20197;-55
2022/01/30 12:41:31;;;;;;;29.63;8.40;;;6.70;99.90;;;;;;5050626;28;20228;-55
2022/01/30 12:44:04;;;;;;;25.60;7.40;;;6.70;99.90;;;;;;5049439;28;20217;-55
2022/01/30 12:46:36;;;;;;;31.57;7.47;;;6.70;99.90;;;;;;5050840;28;20727;-55
2022/01/30 12:49:11;;;;;;;36.30;7.63;;;6.70;99.90;;;;;;5050576;28;20292;-55
2022/01/30 12:51:42;;;;;;;40.13;8.23;;;6.70;99.90;;;;;;5028956;28;20239;-55
2022/01/30 12:54:11;;;;;;;25.43;6.17;;;6.80;99.90;;;;;;5038235;28;20233;-55
2022/01/30 12:56:39;;;;;;;32.43;7.53;;;6.80;99.90;;;;;;5050246;28;20237;-55
2022/01/30 12:59:10;;;;;;;30.57;8.37;;;6.80;99.90;;;;;;5045523;28;20581;-55
2022/01/30 13:01:43;;;;;;;32.90;8.40;;;6.90;99.90;;;;;;5030605;28;20238;-55
2022/01/30 13:04:14;;;;;;;31.43;9.07;;;6.90;99.90;;;;;;5044819;28;20237;-55
2022/01/30 13:06:44;;;;;;;25.70;6.77;;;6.90;99.90;;;;;;5050007;28;20217;-54
2022/01/30 13:09:17;;;;;;;25.63;6.53;;;6.90;99.90;;;;;;5050211;28;20216;-55
2022/01/30 13:11:45;;;;;;;28.23;7.87;;;7.00;99.90;;;;;;5043663;28;20216;-55
2022/01/30 13:14:15;;;;;;;28.67;7.13;;;6.90;99.90;;;;;;5046505;28;20316;-56
2022/01/30 13:16:45;;;;;;;32.90;7.43;;;7.00;99.90;;;;;;5048783;28;20201;-55
2022/01/30 13:19:14;;;;;;;33.93;7.97;;;7.00;99.90;;;;;;5048882;28;20213;-55
2022/01/30 13:21:46;;;;;;;27.57;7.60;;;7.00;99.90;;;;;;5048465;28;20232;-56
2022/01/30 13:24:19;;;;;;;39.97;14.43;;;7.00;99.90;;;;;;5048269;28;20925;-55
2022/01/30 13:26:49;;;;;;;39.33;13.63;;;7.00;99.90;;;;;;5049195;28;20240;-56
2022/01/30 13:29:20;;;;;;;29.67;7.90;;;7.00;99.90;;;;;;5048403;28;20634;-55
2022/01/30 13:31:54;;;;;;;31.70;9.33;;;7.00;99.90;;;;;;5049046;28;20205;-55
2022/01/30 13:34:27;;;;;;;34.93;11.57;;;6.90;99.90;;;;;;5049071;28;20201;-54
2022/01/30 13:37:06;;;;;;;417.33;276.40;;;6.90;99.90;;;;;;5047375;28;20214;-54